Little Falls, Wisconsin
Current Conditions -  °F | °C
As of 11:15 PM on Friday 19 Dec 2014 (Local Time) from KOEO Reporting Station
Overcast Overcast  
Wind Chill: 20°   Ceiling: 1400
Heat Index: 28°   Visibility: 10mi
Dew Point: 25°   Wind: 8mph
Humidity: 86%   Direction: 140°SE
Pressure: 30.2"   Gusts: NA
Location:  45.3559°N, 92.3527°W
Report Text: KOEO 200515Z AUTO 14007KT 10SM OVC014 M02/M04 A3020 RMK AO2 T10201040
Loading
Personal Weather Stations






























Interactive Weather Map New forecast layout! Learn more

10-Day Weather Forecast

Advertisements
Track Severe Weather on mobile